Weather observations for the past three days for
Santa Rosa, Santa Rosa Sonoma County Airport
Metric (Imperial)
Date Time (pdt) Wind (kph) Vis. (km) Weather Sky Cond. Temperature (ºC) Relative Humidity Wind Chill (°C) Heat Index (°C) Pressure Precipitation (cm)
Air Dwpt 6 hour altimeter (cm) sea level (mb) 1 hr 3 hr 6 hr
Max. Min.
07 08:53 Calm 4.83 Fog/Mist OVC004 11.7 10.6 93% 76.48 1019.0
07 07:53 S 6 3.22 Fog/Mist OVC003 11.7 10.6 93% 76.48 1018.9
07 06:53 SE 6 3.22 Fog/Mist OVC003 11.1 10.6 97% 76.45 1018.5
07 05:53 SE 6 9.66 Fog/Mist OVC003 11.1 10.6 97% 76.4 1018.1
07 04:53 SE 6 11.27 Overcast OVC003 11.1 10.6 11.7 11.1 97% 76.4 1018.1
07 03:53 S 6 14.48 Overcast OVC004 11.1 10.6 97% 76.43 1018.2
07 02:53 S 6 16.09 Overcast OVC005 11.7 10.6 93% 76.43 1018.3
07 01:53 SE 11 16.09 Overcast OVC005 11.7 10.6 93% 76.45 1018.7
07 00:53 SE 11 16.09 Overcast OVC006 11.7 10.6 93% 76.45 1018.5
06 23:53 SE 9 16.09 Partly Cloudy SCT007 11.1 10 93% 76.43 1018.3
06 22:53 SE 15 16.09 Fair CLR 11.7 10.6 21.7 11.7 93% 76.4 1018.0
06 21:53 SE 11 16.09 Fair CLR 12.2 10.6 90% 76.4 1017.9
06 20:53 SE 15 16.09 Fair CLR 13.3 11.1 87% 76.38 1017.6
06 19:53 SE 15 16.09 Fair CLR 16.1 11.7 75% 76.35 1017.3
06 18:53 S 11 16.09 Fair CLR 19.4 11.1 59% 76.35 1017.2
06 17:53 S 15 16.09 Fair CLR 20.6 11.7 57% 76.35 1017.3
06 16:53 SW 17 16.09 A Few Clouds FEW040 21.7 11.7 23.3 18.9 53% 76.35 1017.2
06 15:53 SW 11 G 28 16.09 A Few Clouds FEW050 22.8 12.8 53% 76.38 1017.6
06 14:53 S 17 16.09 A Few Clouds FEW050 22.8 13.9 57% 76.43 1018.2
06 13:53 Vrbl 7 16.09 Partly Cloudy SCT050 22.8 13.9 57% 76.45 1018.5
06 12:53 S 11 16.09 Partly Cloudy SCT040 21.7 13.3 59% 76.48 1019.0
06 11:53 Calm 16.09 Fair CLR 20.6 13.3 63% 76.53 1019.6
06 10:53 Calm 16.09 Partly Cloudy SCT040 18.9 12.8 19.4 12.2 68% 76.53 1019.8
06 09:53 Calm 16.09 Partly Cloudy SCT044 17.2 12.2 73% 76.56 1020.0
06 08:53 Calm 16.09 Overcast FEW010 OVC043 14.4 11.1 81% 76.58 1020.2
06 07:53 Calm 16.09 Overcast FEW015 OVC043 13.3 11.1 87% 76.56 1020.0
06 06:53 Calm 16.09 Overcast OVC042 12.8 11.1 90% 76.53 1019.7
06 05:53 Calm 16.09 Overcast FEW022 OVC042 12.8 11.1 90% 76.5 1019.3
06 04:53 Calm 16.09 Overcast OVC041 12.8 11.1 12.8 12.8 90% 76.48 1019.0
06 03:53 S 7 16.09 Overcast FEW009 OVC041 12.8 11.1 90% 76.45 1018.7
06 02:53 S 6 16.09 Overcast OVC042 12.8 11.1 90% 76.43 1018.3
06 01:53 S 7 16.09 Overcast OVC040 12.8 10.6 87% 76.43 1018.4
06 00:53 SE 7 16.09 Overcast OVC038 12.8 10.6 87% 76.43 1018.2
05 23:53 SE 11 16.09 Overcast OVC034 12.8 10.6 87% 76.38 1017.8
05 22:53 SE 9 16.09 Overcast OVC032 13.3 11.1 18.3 13.3 87% 76.35 1017.4
05 21:53 SE 11 16.09 Overcast OVC033 13.3 11.1 87% 76.33 1017.0
05 20:53 SE 9 16.09 Overcast OVC034 14.4 10.6 78% 76.28 1016.2
05 19:53 S 13 16.09 Overcast OVC035 15.6 10 70% 76.17 1015.1
05 18:53 S 15 16.09 Mostly Cloudy BKN032 16.1 10 67% 76.15 1014.6
05 17:53 SW 13 16.09 Mostly Cloudy BKN039 17.2 10.6 65% 76.12 1014.4
05 16:53 SW 17 16.09 Mostly Cloudy BKN030 18.3 11.1 18.9 15.6 63% 76.1 1014.0
05 15:53 S 11 16.09 Overcast OVC030 18.9 11.7 63% 76.12 1014.1
05 14:53 S 7 16.09 Overcast OVC028 18.3 11.7 66% 76.15 1014.5
05 13:53 Calm 16.09 Overcast OVC028 17.2 10.6 65% 76.17 1014.9
05 12:53 S 9 16.09 Overcast OVC024 16.7 11.1 70% 76.17 1015.1
05 11:53 Vrbl 7 16.09 Overcast OVC025 16.1 10.6 70% 76.17 1015.1
05 10:53 SW 6 16.09 Overcast OVC020 15.6 10 15.6 11.1 70% 76.17 1015.0
05 09:53 Calm 16.09 Mostly Cloudy SCT018 BKN024 14.4 10.6 78% 76.17 1014.8
05 08:53 W 7 16.09 Mostly Cloudy SCT013 BKN028 BKN060 14.4 10.6 78% 76.15 1014.5
05 07:53 W 9 16.09 Mostly Cloudy FEW007 SCT030 BKN060 12.2 10.6 90% 76.12 1014.2
05 06:53 Calm 16.09 Mostly Cloudy FEW007 SCT020 BKN055 11.7 10.6 93% 76.1 1013.9
05 05:53 W 6 16.09 Overcast BKN055 OVC075 11.7 10.6 93% 76.07 1013.4
05 04:53 W 9 16.09 Overcast OVC060 11.7 10.6 11.7 11.7 93% 76.07 1013.5
05 03:53 S 6 16.09 Overcast OVC048 11.7 10.6 93% 76.1 1013.7 0.03
05 02:53 S 7 16.09 Overcast OVC050 11.7 10.6 93% 76.07 1013.6 0.03
05 01:53 S 6 16.09 Light Rain OVC055 11.7 10.6 93% 76.12 1014.2
05 00:53 S 6 16.09 Overcast OVC060 11.7 10.6 93% 76.15 1014.5 0.05
04 23:53 Calm 16.09 Light Rain OVC060 11.7 11.1 96% 76.15 1014.5
04 22:53 S 7 16.09 Overcast SCT050 BKN070 OVC085 11.7 11.1 12.8 11.7 96% 76.15 1014.4 0.28
04 21:53 S 9 16.09 Light Rain FEW011 BKN070 OVC080 11.7 11.1 96% 76.2 1015.1
04 20:53 SE 11 16.09 Overcast OVC070 11.7 11.1 96% 76.15 1014.6 0.03
04 19:53 S 7 14.48 Overcast OVC075 12.2 11.1 93% 76.1 1013.9 0.08 0.25
04 18:53 S 7 8.05 Rain Fog/Mist SCT030 OVC080 12.2 11.1 93% 76.15 1014.6 0.1
04 17:53 S 9 12.87 Light Rain BKN029 OVC080 12.8 11.7 93% 76.15 1014.7 0.08
04 16:53 S 6 11.27 Light Rain SCT020 OVC080 12.8 11.1 19.4 12.8 90% 76.15 1014.6 0.08 0.23
04 15:53 SW 11 11.27 Light Rain SCT020 OVC080 13.3 11.1 87% 76.15 1014.7 0.13
04 14:53 W 15 12.87 Light Rain SCT040 OVC090 14.4 10.6 78% 76.12 1014.2 0.03
04 13:53 SW 13 16.09 Mostly Cloudy BKN040 17.2 9.4 60% 76.12 1014.4
04 12:53 S 15 16.09 Mostly Cloudy BKN043 17.8 9.4 58% 76.12 1014.3
04 11:53 Vrbl 9 16.09 Mostly Cloudy BKN035 18.9 9.4 54% 76.12 1014.3
04 10:53 Vrbl 6 16.09 Partly Cloudy FEW012 SCT028 16.7 9.4 16.7 8.3 62% 76.15 1014.6
04 09:53 S 6 16.09 Partly Cloudy FEW008 SCT025 15 10 72% 76.15 1014.5
Date Time (pdt) Wind (kph) Vis. (km) Weather Sky Cond. Air Dwpt Max. Min. Relative Humidity Wind Chill (°C) Heat Index (°C) altimeter (cm) sea level (mb) 1 hr 3 hr 6 hr
6 hour
Temperature (ºC) Pressure Precipitation (cm)